2CN5 weather

Regional Medical Center Of San Jose H1 Heliport
San Jose, California, United States

Public forecast

Using degrees Fahrenheit for public forecast. Weather courtesy of forecast.io.

Closest aviation weather report (METAR) to Regional Medical Center Of San Jose H1 Heliport

Report is more than 6 hours old.

Closest report is Reid-Hillview Airport of Santa Clara County, 2.3 nm (4.3 km) SE. Retrieved 2019/10/17 04:52 UTC (8 hours ago):

KRHV 170452Z 00000KT 10SM OVC100 16/09 A2991 RMK LAST

Closest aviation forecast (TAF) to Regional Medical Center Of San Jose H1 Heliport

Closest forecast is Norman Y. Mineta San Jose International Airport, 3.8 nm (7.0 km) W. Retrieved 2019/10/17 12:36 UTC (0 seconds ago):

TAF KSJC 171133Z 1712/1812 34006KT P6SM BKN025 TEMPO 1713/1716 BKN015 FM171600 31013KT P6SM SCT030 FM172200 30015G22KT P6SM SCT050 FM180400 28009KT P6SM FEW040